This is the latest recevied weather packets stored in our database for station/object CA4LJZ-10. If no packets are shown the sender has not sent any weather packets the latest 10 day(s).
| Time | Temp. | Humidity | Pressure | Rain* | Wind** | Luminosity | Snow |
|---|---|---|---|---|---|---|---|
| 1777833067 | 32.22° C | 18% | 953.7 hPa | - | - | - | - |
| 1777832166 | 35° C | 17% | 953.8 hPa | - | - | - | - |
| 1777831265 | 39.44° C | 16% | 954 hPa | - | - | - | - |
| 1777827661 | 43.89° C | 14% | 954.5 hPa | - | - | - | - |
| 1777825858 | 35.56° C | 17% | 954.6 hPa | - | - | - | - |
| 1777824958 | 46.67° C | 13% | 955.3 hPa | - | - | - | - |
| 1777824057 | 36.67° C | 18% | 955.3 hPa | - | - | - | - |
| 1777821354 | 46.67° C | 14% | 955.6 hPa | - | - | - | - |
| 1777820453 | 44.44° C | 14% | 955.5 hPa | - | - | - | - |
| 1777818657 | 42.78° C | 15% | 955.5 hPa | - | - | - | - |
| 1777817965 | 41.67° C | 16% | 955.8 hPa | - | - | - | - |
| 1777810757 | 11.11° C | 60% | 955.1 hPa | - | - | - | - |
| 1777803550 | 12.78° C | 61% | 954.4 hPa | - | - | - | - |
| 1777801772 | 11.11° C | 60% | 954.6 hPa | - | - | - | - |
| 1777800871 | 11.67° C | 58% | 954.2 hPa | - | - | - | - |
| 1777799970 | 12.22° C | 58% | 954.2 hPa | - | - | - | - |
| 1777799070 | 12.22° C | 58% | 954.1 hPa | - | - | - | - |
| 1777798168 | 12.22° C | 59% | 954 hPa | - | - | - | - |
| 1777797267 | 11.67° C | 59% | 954.1 hPa | - | - | - | - |
| 1777796366 | 12.22° C | 58% | 954 hPa | - | - | - | - |
| 1777795480 | 12.22° C | 58% | 954.2 hPa | - | - | - | - |
| 1777795465 | 12.22° C | 58% | 954.2 hPa | - | - | - | - |
| 1777794564 | 12.22° C | 58% | 954.5 hPa | - | - | - | - |
| 1777793662 | 12.22° C | 57% | 954.9 hPa | - | - | - | - |
| 1777792761 | 12.78° C | 57% | 955 hPa | - | - | - | - |
* Rain since midnight (hover to see other rain measurements)
** Current wind speed in m/s (hover to see current wind gust speed)